createdAt,value
2019-05-26T00:00:59.062Z,0.00
2019-05-26T00:01:59.237Z,0.00
2019-05-26T00:03:51.072Z,0.00
2019-05-26T00:04:51.038Z,0.00
2019-05-26T00:06:43.127Z,0.00
2019-05-26T00:07:43.075Z,0.00
2019-05-26T00:09:35.146Z,0.00
2019-05-26T00:10:35.108Z,0.00
2019-05-26T00:12:27.238Z,0.00
2019-05-26T00:13:27.143Z,0.00
2019-05-26T00:15:19.213Z,0.00
2019-05-26T00:16:19.176Z,0.00
2019-05-26T00:18:11.256Z,0.00
2019-05-26T00:19:11.210Z,0.00
2019-05-26T00:21:03.281Z,0.00
2019-05-26T00:22:03.478Z,0.00
2019-05-26T00:23:56.323Z,0.00
2019-05-26T00:24:55.382Z,0.00
2019-05-26T00:26:47.471Z,0.00
2019-05-26T00:27:47.416Z,0.00
2019-05-26T00:29:39.505Z,0.00
2019-05-26T00:30:39.451Z,0.00
2019-05-26T00:32:31.564Z,0.00
2019-05-26T00:33:31.490Z,0.00
2019-05-26T00:35:23.571Z,0.00
2019-05-26T00:36:23.519Z,0.00
2019-05-26T00:38:15.608Z,0.00
2019-05-26T00:39:15.554Z,0.00
2019-05-26T00:41:07.622Z,0.00
2019-05-26T00:42:07.818Z,0.00
2019-05-26T00:43:59.698Z,0.00
2019-05-26T00:44:59.634Z,0.00
2019-05-26T00:46:51.813Z,0.00
2019-05-26T00:47:51.757Z,0.00
2019-05-26T00:49:43.976Z,0.00
2019-05-26T00:50:43.897Z,0.00
2019-05-26T00:52:36.028Z,0.00
2019-05-26T00:53:35.973Z,0.00
2019-05-26T00:55:28.117Z,0.00
2019-05-26T00:56:28.068Z,0.00
2019-05-26T00:58:20.158Z,0.00
2019-05-26T00:59:20.102Z,0.00
2019-05-26T01:01:12.277Z,0.00
2019-05-26T01:02:12.239Z,0.00
2019-05-26T01:04:04.327Z,0.00
2019-05-26T01:05:04.272Z,0.00
2019-05-26T01:06:56.239Z,0.00
2019-05-26T01:08:05.768Z,0.00
2019-05-26T01:09:48.293Z,0.00
2019-05-26T01:10:48.238Z,0.00
2019-05-26T01:12:40.420Z,0.00
2019-05-26T01:13:40.378Z,0.00
2019-05-26T01:15:32.462Z,0.00
2019-05-26T01:16:32.409Z,0.00
2019-05-26T01:18:24.480Z,0.00
2019-05-26T01:19:24.446Z,0.00
2019-05-26T01:21:16.539Z,0.00
2019-05-26T01:22:16.478Z,0.00
2019-05-26T01:24:08.668Z,0.00
2019-05-26T01:25:08.619Z,0.00
2019-05-26T01:27:00.703Z,0.00
2019-05-26T01:28:00.650Z,0.00
2019-05-26T01:29:52.743Z,0.00
2019-05-26T01:30:52.714Z,0.00
2019-05-26T01:32:44.889Z,0.00
2019-05-26T01:33:45.057Z,0.00
2019-05-26T01:35:36.913Z,0.00
2019-05-26T01:36:36.856Z,0.00
2019-05-26T01:38:28.937Z,0.00
2019-05-26T01:39:29.121Z,0.00
2019-05-26T01:41:20.973Z,0.00
2019-05-26T01:42:20.955Z,0.00
2019-05-26T01:44:13.104Z,0.00
2019-05-26T01:45:13.056Z,0.00
2019-05-26T01:47:05.152Z,0.00
2019-05-26T01:48:05.097Z,0.00
2019-05-26T01:49:57.265Z,0.00
2019-05-26T01:50:57.244Z,0.00
2019-05-26T01:52:49.333Z,0.00
2019-05-26T01:53:49.262Z,0.00
2019-05-26T01:55:41.457Z,0.00
2019-05-26T01:56:41.634Z,0.00
2019-05-26T01:58:33.472Z,0.00
2019-05-26T01:59:33.463Z,0.00
2019-05-26T02:01:25.622Z,0.00
2019-05-26T02:02:25.805Z,0.00
2019-05-26T02:04:17.644Z,0.00
2019-05-26T02:05:17.653Z,0.00
2019-05-26T02:07:09.705Z,0.00
2019-05-26T02:08:11.959Z,0.00
2019-05-26T02:10:01.717Z,0.00
2019-05-26T02:11:01.681Z,0.00
2019-05-26T02:12:53.766Z,0.00
2019-05-26T02:13:53.709Z,0.00
2019-05-26T02:15:45.904Z,0.00
2019-05-26T02:16:45.841Z,0.00
2019-05-26T02:18:38.050Z,0.00
2019-05-26T02:19:37.986Z,0.00
2019-05-26T02:21:30.053Z,0.00
2019-05-26T02:22:30.024Z,0.00
2019-05-26T02:24:22.219Z,0.00
2019-05-26T02:25:22.166Z,0.00
2019-05-26T02:27:14.328Z,0.00
2019-05-26T02:28:14.291Z,0.00
2019-05-26T02:30:06.391Z,0.00
2019-05-26T03:01:07.434Z,0.00
2019-05-26T03:02:07.613Z,0.00
2019-05-26T03:03:59.451Z,0.00
2019-05-26T03:04:59.411Z,0.00
2019-05-26T03:06:51.490Z,0.00
2019-05-26T03:07:51.452Z,0.00
2019-05-26T03:09:43.629Z,0.00
2019-05-26T03:10:43.812Z,0.00
2019-05-26T03:12:35.665Z,0.00
2019-05-26T03:13:35.680Z,0.00
2019-05-26T03:15:27.790Z,0.00
2019-05-26T03:16:27.749Z,0.00
2019-05-26T03:18:19.830Z,0.00
2019-05-26T03:19:19.784Z,0.00
2019-05-26T03:21:11.856Z,0.00
2019-05-26T03:22:11.827Z,0.00
2019-05-26T03:24:03.900Z,0.00
2019-05-26T03:25:03.857Z,0.00
2019-05-26T03:26:55.936Z,0.00
2019-05-26T03:27:55.884Z,0.00
2019-05-26T03:29:47.955Z,0.00
2019-05-26T03:30:48.054Z,0.00
2019-05-26T03:32:39.904Z,0.00
2019-05-26T03:33:40.114Z,0.00
2019-05-26T03:35:31.922Z,0.00
2019-05-26T03:36:31.894Z,0.00
2019-05-26T03:38:24.081Z,0.00
2019-05-26T03:39:42.271Z,0.00
2019-05-26T03:41:16.114Z,0.00
2019-05-26T03:42:16.288Z,0.00
2019-05-26T03:44:08.132Z,0.00
2019-05-26T03:45:08.092Z,0.00
2019-05-26T03:47:00.180Z,0.00
2019-05-26T03:48:00.118Z,0.00
2019-05-26T03:49:52.206Z,0.00
2019-05-26T03:50:52.405Z,0.00
2019-05-26T03:52:44.253Z,0.00
2019-05-26T03:53:44.428Z,0.00
2019-05-26T03:55:36.266Z,0.00
2019-05-26T03:56:36.458Z,0.00
2019-05-26T03:58:28.326Z,0.00
2019-05-26T03:59:28.501Z,0.00
2019-05-26T04:01:20.638Z,0.00
2019-05-26T04:02:20.599Z,0.00
2019-05-26T04:04:12.694Z,0.00
2019-05-26T04:05:12.638Z,0.00
2019-05-26T04:07:04.715Z,0.00
2019-05-26T04:08:05.546Z,0.00
2019-05-26T04:10:04.545Z,0.00
2019-05-26T04:10:56.707Z,0.00
2019-05-26T04:12:48.881Z,0.00
2019-05-26T04:13:49.113Z,0.00
2019-05-26T04:15:40.935Z,0.00
2019-05-26T04:16:40.881Z,5.63
2019-05-26T04:18:33.070Z,5.63
2019-05-26T04:19:33.020Z,5.63
2019-05-26T04:21:25.088Z,5.63
2019-05-26T04:22:25.283Z,5.63
2019-05-26T04:24:17.130Z,5.63
2019-05-26T04:25:17.314Z,5.63
2019-05-26T04:27:09.153Z,5.63
2019-05-26T04:28:09.355Z,5.63
2019-05-26T04:30:01.221Z,11.25
2019-05-26T04:31:01.158Z,11.25
2019-05-26T04:32:53.231Z,11.25
2019-05-26T04:33:53.186Z,11.25
2019-05-26T04:35:45.276Z,11.25
2019-05-26T04:36:45.454Z,11.25
2019-05-26T04:38:37.308Z,11.25
2019-05-26T04:39:37.255Z,11.25
2019-05-26T04:41:29.691Z,11.25
2019-05-26T04:42:29.606Z,11.25
2019-05-26T04:44:21.691Z,11.25
2019-05-26T04:45:21.868Z,11.25
2019-05-26T04:47:13.706Z,11.25
2019-05-26T04:48:13.901Z,11.25
2019-05-26T04:50:05.758Z,11.25
2019-05-26T04:51:05.704Z,11.25
2019-05-26T04:53:06.034Z,16.88
2019-05-26T04:53:57.633Z,16.88
2019-05-26T04:55:49.611Z,16.88
2019-05-26T04:56:49.839Z,16.88
2019-05-26T04:58:41.538Z,16.88
2019-05-26T04:59:41.744Z,16.88
2019-05-26T05:01:33.583Z,16.88
2019-05-26T05:02:33.761Z,16.88
2019-05-26T05:04:25.722Z,16.88
2019-05-26T05:05:25.898Z,22.50
2019-05-26T05:07:17.767Z,22.50
2019-05-26T05:08:17.936Z,22.50
2019-05-26T05:10:09.776Z,22.50
2019-05-26T05:11:09.965Z,22.50
2019-05-26T05:13:01.827Z,22.50
2019-05-26T05:14:02.035Z,22.50
2019-05-26T05:15:53.870Z,22.50
2019-05-26T05:16:53.804Z,22.50
2019-05-26T05:18:45.976Z,28.13
2019-05-26T05:19:45.941Z,28.13
2019-05-26T05:21:38.027Z,28.13
2019-05-26T05:22:37.982Z,28.13
2019-05-26T05:24:30.045Z,33.75
2019-05-26T05:25:30.012Z,33.75
2019-05-26T05:27:22.192Z,33.75
2019-05-26T05:28:22.146Z,39.38
2019-05-26T05:30:14.218Z,33.75
2019-05-26T05:31:14.424Z,33.75
2019-05-26T05:33:06.288Z,39.38
2019-05-26T05:34:06.445Z,39.38
2019-05-26T05:35:58.302Z,39.38
2019-05-26T05:36:58.251Z,39.38
2019-05-26T05:38:50.319Z,45.00
2019-05-26T05:39:50.286Z,45.00
2019-05-26T05:41:42.371Z,45.00
2019-05-26T05:42:42.316Z,45.00
2019-05-26T05:44:34.490Z,45.00
2019-05-26T05:45:34.454Z,45.00
2019-05-26T05:47:26.543Z,45.00
2019-05-26T05:48:26.492Z,45.00
2019-05-26T05:50:18.659Z,61.88
2019-05-26T05:51:18.624Z,56.25
2019-05-26T05:53:10.707Z,61.88
2019-05-26T05:54:10.661Z,61.88
2019-05-26T05:56:02.833Z,61.88
2019-05-26T05:57:02.801Z,61.88
2019-05-26T05:58:54.879Z,61.88
2019-05-26T05:59:54.835Z,61.88
2019-05-26T06:01:46.908Z,61.88
2019-05-26T06:02:46.874Z,61.88
2019-05-26T06:04:38.985Z,67.50
2019-05-26T06:05:38.922Z,67.50
2019-05-26T06:07:30.968Z,61.88
2019-05-26T06:08:30.934Z,61.88
2019-05-26T06:10:23.017Z,56.25
2019-05-26T06:11:23.200Z,50.63
2019-05-26T06:13:15.037Z,50.63
2019-05-26T06:14:15.232Z,50.63
2019-05-26T06:16:07.094Z,50.63
2019-05-26T06:17:10.464Z,56.25
2019-05-26T06:18:59.127Z,56.25
2019-05-26T06:19:59.073Z,61.88
2019-05-26T06:21:51.308Z,61.88
2019-05-26T06:22:51.106Z,67.50
2019-05-26T06:24:43.195Z,73.13
2019-05-26T06:25:43.153Z,73.13
2019-05-26T06:27:35.229Z,73.13
2019-05-26T06:28:35.174Z,73.13
2019-05-26T06:30:27.271Z,67.50
2019-05-26T06:31:27.487Z,67.50
2019-05-26T06:33:19.279Z,67.50
2019-05-26T06:34:19.245Z,67.50
2019-05-26T06:36:11.330Z,67.50
2019-05-26T06:37:11.282Z,67.50
2019-05-26T06:39:03.363Z,67.50
2019-05-26T06:40:03.316Z,73.13
2019-05-26T06:41:55.380Z,73.13
2019-05-26T06:42:55.348Z,73.13
2019-05-26T06:44:53.539Z,73.13
2019-05-26T06:45:47.383Z,73.13
2019-05-26T06:47:39.474Z,61.88
2019-05-26T06:48:39.416Z,67.50
2019-05-26T06:50:31.605Z,73.13
2019-05-26T06:51:31.553Z,78.75
2019-05-26T06:53:23.629Z,73.13
2019-05-26T06:54:23.588Z,73.13
2019-05-26T06:56:15.778Z,73.13
2019-05-26T06:57:15.952Z,73.13
2019-05-26T06:59:07.790Z,73.13
2019-05-26T07:00:07.758Z,73.13
2019-05-26T07:01:59.846Z,73.13
2019-05-26T07:02:59.793Z,73.13
2019-05-26T07:04:51.881Z,78.75
2019-05-26T07:05:51.826Z,78.75
2019-05-26T07:07:43.898Z,73.13
2019-05-26T07:08:43.866Z,73.13
2019-05-26T07:10:35.969Z,78.75
2019-05-26T07:11:50.039Z,84.38
2019-05-26T07:13:27.962Z,90.00
2019-05-26T07:14:28.159Z,90.00
2019-05-26T07:16:36.519Z,95.63
2019-05-26T07:17:20.764Z,95.63
2019-05-26T07:19:12.050Z,95.63
2019-05-26T07:20:11.999Z,95.63
2019-05-26T07:22:04.067Z,101.25
2019-05-26T07:23:05.823Z,95.63
2019-05-26T07:24:56.219Z,95.63
2019-05-26T07:25:56.169Z,95.63
2019-05-26T07:27:48.258Z,95.63
2019-05-26T07:28:48.205Z,95.63
2019-05-26T07:30:40.397Z,90.00
2019-05-26T07:31:40.340Z,90.00
2019-05-26T07:33:32.429Z,95.63
2019-05-26T07:34:32.374Z,95.63
2019-05-26T07:36:24.461Z,101.25
2019-05-26T07:37:24.409Z,101.25
2019-05-26T07:39:16.497Z,106.88
2019-05-26T07:40:16.680Z,112.50
2019-05-26T07:42:10.518Z,112.50
2019-05-26T07:43:08.713Z,118.13
2019-05-26T07:45:00.604Z,123.75
2019-05-26T07:46:00.514Z,118.13
2019-05-26T07:47:52.606Z,123.75
2019-05-26T07:48:52.548Z,129.38
2019-05-26T07:50:44.621Z,129.38
2019-05-26T07:51:44.590Z,129.38
2019-05-26T07:53:36.771Z,123.75
2019-05-26T07:54:36.716Z,123.75
2019-05-26T07:56:28.889Z,123.75
2019-05-26T07:57:28.855Z,129.38
2019-05-26T07:59:21.046Z,140.63
2019-05-26T08:00:20.994Z,135.00
2019-05-26T08:02:13.161Z,140.63
2019-05-26T08:03:13.129Z,146.25
2019-05-26T08:05:05.215Z,146.25
2019-05-26T08:06:05.167Z,151.88
2019-05-26T08:08:11.439Z,146.25
2019-05-26T08:08:57.198Z,151.88
2019-05-26T08:10:49.264Z,146.25
2019-05-26T08:11:49.232Z,140.63
2019-05-26T08:13:41.419Z,151.88
2019-05-26T08:14:41.597Z,151.88
2019-05-26T08:16:33.437Z,157.50
2019-05-26T08:17:33.632Z,157.50
2019-05-26T08:19:25.509Z,157.50
2019-05-26T08:20:25.437Z,157.50
2019-05-26T08:22:17.507Z,151.88
2019-05-26T08:23:17.471Z,157.50
2019-05-26T08:25:09.557Z,157.50
2019-05-26T08:26:09.509Z,157.50
2019-05-26T08:28:01.603Z,157.50
2019-05-26T08:29:01.545Z,157.50
2019-05-26T08:30:53.608Z,129.38
2019-05-26T08:31:53.578Z,78.75
2019-05-26T08:33:45.762Z,118.13
2019-05-26T08:34:45.715Z,151.88
2019-05-26T08:36:37.782Z,151.88
2019-05-26T08:37:37.745Z,157.50
2019-05-26T08:39:29.936Z,157.50
2019-05-26T08:40:30.113Z,157.50
2019-05-26T08:42:28.800Z,157.50
2019-05-26T08:43:21.918Z,157.50
2019-05-26T08:45:13.997Z,157.50
2019-05-26T08:46:13.951Z,163.13
2019-05-26T08:48:06.152Z,163.13
2019-05-26T08:49:06.089Z,163.13
2019-05-26T08:50:58.156Z,163.13
2019-05-26T08:51:58.164Z,163.13
2019-05-26T08:53:50.326Z,163.13
2019-05-26T08:54:50.495Z,163.13
2019-05-26T08:56:42.326Z,163.13
2019-05-26T08:57:42.523Z,163.13
2019-05-26T08:59:34.380Z,163.13
2019-05-26T09:00:34.333Z,163.13
2019-05-26T09:02:26.403Z,163.13
2019-05-26T09:03:26.364Z,163.13
2019-05-26T09:05:18.449Z,163.13
2019-05-26T09:06:18.398Z,168.75
2019-05-26T09:08:10.465Z,163.13
2019-05-26T09:09:10.435Z,157.50
2019-05-26T09:11:02.518Z,202.50
2019-05-26T09:12:02.470Z,157.50
2019-05-26T09:13:54.540Z,118.13
2019-05-26T09:14:54.502Z,129.38
2019-05-26T09:16:46.589Z,112.50
2019-05-26T09:17:46.535Z,112.50
2019-05-26T09:19:38.630Z,106.88
2019-05-26T09:20:38.570Z,106.88
2019-05-26T09:22:30.548Z,90.00
2019-05-26T09:23:30.504Z,84.38
2019-05-26T09:25:22.601Z,73.13
2019-05-26T09:26:22.535Z,67.50
2019-05-26T09:28:14.608Z,67.50
2019-05-26T09:29:14.573Z,61.88
2019-05-26T09:31:06.655Z,61.88
2019-05-26T09:32:06.604Z,61.88
2019-05-26T09:33:58.675Z,61.88
2019-05-26T09:34:58.643Z,61.88
2019-05-26T09:36:50.724Z,61.88
2019-05-26T09:37:50.675Z,61.88
2019-05-26T09:39:42.747Z,67.50
2019-05-26T09:40:42.709Z,67.50
2019-05-26T09:42:34.795Z,67.50
2019-05-26T09:43:34.747Z,67.50
2019-05-26T09:45:26.811Z,67.50
2019-05-26T09:46:27.007Z,67.50
2019-05-26T09:48:18.855Z,67.50
2019-05-26T09:49:19.039Z,67.50
2019-05-26T09:51:10.880Z,61.88
2019-05-26T09:52:11.075Z,61.88
2019-05-26T09:54:02.932Z,61.88
2019-05-26T09:55:03.112Z,61.88
2019-05-26T09:56:55.062Z,61.88
2019-05-26T09:57:55.021Z,56.25
2019-05-26T09:59:47.104Z,56.25
2019-05-26T10:00:47.052Z,56.25
2019-05-26T10:02:39.222Z,56.25
2019-05-26T10:03:39.193Z,56.25
2019-05-26T10:05:31.281Z,56.25
2019-05-26T10:06:31.221Z,56.25
2019-05-26T10:08:23.289Z,56.25
2019-05-26T10:09:23.256Z,56.25
2019-05-26T10:11:15.354Z,50.63
2019-05-26T10:12:15.303Z,50.63
2019-05-26T10:14:07.460Z,50.63
2019-05-26T10:15:07.661Z,50.63
2019-05-26T10:16:59.507Z,45.00
2019-05-26T10:17:59.714Z,45.00
2019-05-26T10:19:51.537Z,45.00
2019-05-26T10:20:51.500Z,45.00
2019-05-26T10:22:43.582Z,39.38
2019-05-26T10:23:43.530Z,39.38
2019-05-26T10:25:35.734Z,39.38
2019-05-26T10:26:35.895Z,39.38
2019-05-26T10:28:27.738Z,39.38
2019-05-26T10:29:27.935Z,39.38
2019-05-26T10:31:19.788Z,39.38
2019-05-26T10:32:19.762Z,45.00
2019-05-26T10:34:13.793Z,45.00
2019-05-26T10:35:11.871Z,45.00
2019-05-26T10:37:03.962Z,50.63
2019-05-26T10:38:03.911Z,50.63
2019-05-26T10:39:55.974Z,50.63
2019-05-26T10:40:55.939Z,45.00
2019-05-26T10:42:48.134Z,45.00
2019-05-26T10:43:48.102Z,45.00
2019-05-26T10:45:40.251Z,39.38
2019-05-26T10:46:40.213Z,39.38
2019-05-26T10:48:32.403Z,39.38
2019-05-26T10:49:32.352Z,39.38
2019-05-26T10:51:24.533Z,39.38
2019-05-26T10:52:24.488Z,39.38
2019-05-26T10:54:16.578Z,39.38
2019-05-26T10:55:16.522Z,39.38
2019-05-26T10:57:08.611Z,39.38
2019-05-26T10:58:08.559Z,39.38
2019-05-26T11:00:00.646Z,39.38
2019-05-26T11:01:00.592Z,45.00
2019-05-26T11:02:52.575Z,45.00
2019-05-26T11:03:52.524Z,45.00
2019-05-26T11:05:44.595Z,45.00
2019-05-26T11:06:44.557Z,45.00
2019-05-26T11:08:36.639Z,45.00
2019-05-26T11:09:36.592Z,45.00
2019-05-26T11:11:28.661Z,45.00
2019-05-26T11:12:28.859Z,45.00
2019-05-26T11:14:20.717Z,45.00
2019-05-26T11:15:20.659Z,45.00
2019-05-26T11:17:12.755Z,45.00
2019-05-26T11:18:12.695Z,50.63
2019-05-26T11:20:04.766Z,50.63
2019-05-26T11:21:04.732Z,50.63
2019-05-26T11:22:56.819Z,50.63
2019-05-26T11:23:56.765Z,50.63
2019-05-26T11:25:48.854Z,50.63
2019-05-26T11:26:48.798Z,50.63
2019-05-26T11:28:40.892Z,50.63
2019-05-26T11:29:40.835Z,50.63
2019-05-26T11:31:32.932Z,50.63
2019-05-26T11:32:32.868Z,50.63
2019-05-26T11:34:24.966Z,50.63
2019-05-26T11:35:24.901Z,50.63
2019-05-26T11:37:17.072Z,50.63
2019-05-26T11:38:17.039Z,50.63
2019-05-26T11:40:09.130Z,50.63
2019-05-26T11:41:09.200Z,50.63
2019-05-26T11:43:15.448Z,56.25
2019-05-26T11:44:01.006Z,56.25
2019-05-26T11:45:53.180Z,56.25
2019-05-26T11:46:53.143Z,56.25
2019-05-26T11:48:45.231Z,56.25
2019-05-26T11:49:45.169Z,56.25
2019-05-26T11:51:37.285Z,61.88
2019-05-26T11:52:37.210Z,61.88
2019-05-26T11:54:29.280Z,61.88
2019-05-26T11:55:29.254Z,56.25
2019-05-26T11:57:21.329Z,56.25
2019-05-26T11:58:21.279Z,56.25
2019-05-26T12:00:13.903Z,61.88
2019-05-26T12:01:13.646Z,61.88
2019-05-26T12:03:05.487Z,61.88
2019-05-26T12:04:05.680Z,67.50
2019-05-26T12:05:57.638Z,67.50
2019-05-26T12:06:57.817Z,67.50
2019-05-26T12:08:49.660Z,61.88
2019-05-26T12:09:49.852Z,61.88
2019-05-26T12:11:41.708Z,56.25
2019-05-26T12:12:41.660Z,56.25
2019-05-26T12:14:35.473Z,56.25
2019-05-26T12:15:33.921Z,56.25
2019-05-26T12:17:25.780Z,56.25
2019-05-26T12:18:25.955Z,56.25
2019-05-26T12:20:17.821Z,56.25
2019-05-26T12:21:17.765Z,56.25
2019-05-26T12:23:09.848Z,56.25
2019-05-26T12:24:09.799Z,56.25
2019-05-26T12:26:01.881Z,56.25
2019-05-26T12:27:01.830Z,56.25
2019-05-26T12:28:53.913Z,61.88
2019-05-26T12:29:53.865Z,61.88
2019-05-26T12:31:45.928Z,67.50
2019-05-26T12:32:45.897Z,67.50
2019-05-26T12:34:38.098Z,61.88
2019-05-26T12:35:38.033Z,61.88
2019-05-26T12:37:30.118Z,67.50
2019-05-26T12:38:30.076Z,61.88
2019-05-26T12:40:22.135Z,61.88
2019-05-26T12:41:22.102Z,61.88
2019-05-26T12:43:14.187Z,67.50
2019-05-26T12:44:14.139Z,67.50
2019-05-26T12:46:06.222Z,67.50
2019-05-26T12:47:06.171Z,67.50
2019-05-26T12:48:58.258Z,67.50
2019-05-26T12:49:58.208Z,67.50
2019-05-26T12:51:50.324Z,67.50
2019-05-26T12:52:50.242Z,67.50
2019-05-26T12:54:42.331Z,67.50
2019-05-26T12:55:42.503Z,73.13
2019-05-26T12:57:34.342Z,78.75
2019-05-26T12:58:34.539Z,78.75
2019-05-26T13:00:26.396Z,73.13
2019-05-26T13:01:26.343Z,73.13
2019-05-26T13:03:18.428Z,73.13
2019-05-26T13:04:18.378Z,67.50
2019-05-26T13:06:10.473Z,67.50
2019-05-26T13:07:10.419Z,67.50
2019-05-26T13:09:02.610Z,67.50
2019-05-26T13:10:02.548Z,61.88
2019-05-26T13:11:54.617Z,61.88
2019-05-26T13:12:54.583Z,61.88
2019-05-26T13:14:46.669Z,56.25
2019-05-26T13:15:46.643Z,61.88
2019-05-26T13:17:38.806Z,67.50
2019-05-26T13:18:38.983Z,67.50
2019-05-26T13:20:30.827Z,67.50
2019-05-26T13:21:30.789Z,67.50
2019-05-26T13:23:22.874Z,67.50
2019-05-26T13:24:22.822Z,67.50
2019-05-26T13:26:14.908Z,67.50
2019-05-26T13:27:15.086Z,67.50
2019-05-26T13:29:06.926Z,67.50
2019-05-26T13:30:07.128Z,67.50
2019-05-26T13:31:58.980Z,67.50
2019-05-26T13:32:58.925Z,67.50
2019-05-26T13:34:51.117Z,67.50
2019-05-26T13:35:51.062Z,67.50
2019-05-26T13:37:43.133Z,67.50
2019-05-26T13:38:43.099Z,67.50
2019-05-26T13:40:35.286Z,67.50
2019-05-26T13:41:35.463Z,61.88
2019-05-26T13:43:27.320Z,61.88
2019-05-26T13:44:27.497Z,61.88
2019-05-26T13:46:19.458Z,61.88
2019-05-26T13:47:26.368Z,61.88
2019-05-26T13:49:11.493Z,61.88
2019-05-26T13:50:11.669Z,61.88
2019-05-26T13:52:03.510Z,61.88
2019-05-26T13:53:03.497Z,61.88
2019-05-26T13:54:55.662Z,61.88
2019-05-26T13:55:55.840Z,61.88
2019-05-26T13:57:49.563Z,61.88
2019-05-26T13:58:47.673Z,56.25
2019-05-26T14:00:39.840Z,56.25
2019-05-26T14:01:39.805Z,56.25
2019-05-26T14:03:31.960Z,56.25
2019-05-26T14:04:32.048Z,56.25
2019-05-26T14:06:23.908Z,56.25
2019-05-26T14:07:24.079Z,56.25
2019-05-26T14:09:15.926Z,56.25
2019-05-26T14:10:16.170Z,56.25
2019-05-26T14:12:08.088Z,61.88
2019-05-26T14:13:08.024Z,61.88
2019-05-26T14:15:00.114Z,61.88
2019-05-26T14:16:00.288Z,61.88
2019-05-26T14:17:52.146Z,61.88
2019-05-26T14:18:52.319Z,61.88
2019-05-26T14:20:44.158Z,61.88
2019-05-26T14:21:44.150Z,61.88
2019-05-26T14:23:36.319Z,61.88
2019-05-26T14:24:36.496Z,61.88
2019-05-26T14:26:28.331Z,61.88
2019-05-26T14:27:28.297Z,61.88
2019-05-26T14:29:20.383Z,56.25
2019-05-26T14:30:20.329Z,50.63
2019-05-26T14:32:12.443Z,45.00
2019-05-26T14:33:12.365Z,45.00
2019-05-26T14:35:04.451Z,50.63
2019-05-26T14:36:04.401Z,56.25
2019-05-26T14:37:56.587Z,56.25
2019-05-26T14:38:56.539Z,61.88
2019-05-26T14:40:48.616Z,61.88
2019-05-26T14:41:48.574Z,67.50
2019-05-26T14:43:40.660Z,61.88
2019-05-26T14:44:40.605Z,61.88
2019-05-26T14:46:32.675Z,56.25
2019-05-26T14:47:32.639Z,56.25
2019-05-26T14:49:24.740Z,56.25
2019-05-26T14:50:24.674Z,56.25
2019-05-26T14:52:16.871Z,50.63
2019-05-26T14:53:16.812Z,50.63
2019-05-26T14:55:08.887Z,45.00
2019-05-26T14:56:08.842Z,45.00
2019-05-26T14:58:14.318Z,39.38
2019-05-26T14:59:00.883Z,39.38
2019-05-26T15:00:52.946Z,33.75
2019-05-26T15:01:52.921Z,33.75
2019-05-26T15:03:45.000Z,33.75
2019-05-26T15:04:44.948Z,33.75
2019-05-26T15:06:37.016Z,28.13
2019-05-26T15:07:36.983Z,22.50
2019-05-26T15:09:29.069Z,22.50
2019-05-26T15:10:29.251Z,16.88
2019-05-26T15:12:21.185Z,11.25
2019-05-26T15:13:21.183Z,11.25
2019-05-26T15:15:13.340Z,11.25
2019-05-26T15:16:13.290Z,11.25
2019-05-26T15:18:05.380Z,11.25
2019-05-26T15:19:05.326Z,16.88
2019-05-26T15:20:57.411Z,11.25
2019-05-26T15:21:57.360Z,11.25
2019-05-26T15:23:49.439Z,11.25
2019-05-26T15:24:49.433Z,11.25
2019-05-26T15:26:41.484Z,11.25
2019-05-26T15:27:41.666Z,11.25
2019-05-26T15:29:33.538Z,16.88
2019-05-26T15:30:33.491Z,16.88
2019-05-26T15:32:25.938Z,22.50
2019-05-26T15:33:26.134Z,22.50
2019-05-26T15:35:17.993Z,22.50
2019-05-26T15:36:17.976Z,22.50
2019-05-26T15:38:10.024Z,22.50
2019-05-26T15:39:09.978Z,16.88
2019-05-26T15:41:02.044Z,16.88
2019-05-26T15:42:02.009Z,16.88
2019-05-26T15:43:54.110Z,16.88
2019-05-26T15:44:54.055Z,22.50
2019-05-26T15:46:46.121Z,22.50
2019-05-26T15:47:46.309Z,22.50
2019-05-26T15:49:38.150Z,16.88
2019-05-26T15:50:38.111Z,16.88
2019-05-26T15:52:30.308Z,16.88
2019-05-26T15:53:30.249Z,16.88
2019-05-26T15:55:22.333Z,11.25
2019-05-26T15:56:22.512Z,11.25
2019-05-26T15:58:14.355Z,11.25
2019-05-26T15:59:14.342Z,11.25
2019-05-26T16:01:06.516Z,11.25
2019-05-26T16:02:06.455Z,11.25
2019-05-26T16:03:58.522Z,11.25
2019-05-26T16:04:59.098Z,11.25
2019-05-26T16:06:50.575Z,11.25
2019-05-26T16:07:50.522Z,11.25
2019-05-26T16:09:42.695Z,11.25
2019-05-26T16:10:42.684Z,11.25
2019-05-26T16:12:34.848Z,11.25
2019-05-26T16:13:35.026Z,11.25
2019-05-26T16:15:26.883Z,11.25
2019-05-26T16:16:40.304Z,11.25
2019-05-26T16:18:18.924Z,11.25
2019-05-26T16:19:18.870Z,5.63
2019-05-26T16:21:27.131Z,5.63
2019-05-26T16:22:11.129Z,5.63
2019-05-26T16:24:02.989Z,11.25
2019-05-26T16:25:03.165Z,11.25
2019-05-26T16:26:55.342Z,11.25
2019-05-26T16:27:55.505Z,11.25
2019-05-26T16:29:47.345Z,11.25
2019-05-26T16:30:47.331Z,11.25
2019-05-26T16:32:39.511Z,11.25
2019-05-26T16:33:39.453Z,11.25
2019-05-26T16:35:31.537Z,11.25
2019-05-26T16:36:31.482Z,11.25
2019-05-26T16:38:23.550Z,11.25
2019-05-26T16:39:36.059Z,11.25
2019-05-26T16:41:15.598Z,11.25
2019-05-26T16:42:15.782Z,11.25
2019-05-26T16:44:07.637Z,11.25
2019-05-26T16:45:07.615Z,11.25
2019-05-26T16:46:59.774Z,11.25
2019-05-26T16:47:59.956Z,11.25
2019-05-26T16:49:51.809Z,5.63
2019-05-26T16:50:51.761Z,5.63
2019-05-26T16:52:43.746Z,5.63
2019-05-26T16:53:43.694Z,5.63
2019-05-26T16:55:35.785Z,5.63
2019-05-26T16:56:35.723Z,11.25
2019-05-26T16:58:27.793Z,11.25
2019-05-26T16:59:27.757Z,11.25
2019-05-26T17:01:19.843Z,11.25
2019-05-26T17:02:19.796Z,11.25
2019-05-26T17:04:11.864Z,11.25
2019-05-26T17:05:12.055Z,11.25
2019-05-26T17:07:03.915Z,11.25
2019-05-26T17:08:04.091Z,11.25
2019-05-26T17:09:55.934Z,11.25
2019-05-26T17:10:56.124Z,11.25
2019-05-26T17:12:47.981Z,11.25
2019-05-26T17:13:48.157Z,11.25
2019-05-26T17:15:39.998Z,11.25
2019-05-26T17:16:39.974Z,11.25
2019-05-26T17:18:32.151Z,11.25
2019-05-26T17:19:32.099Z,11.25
2019-05-26T17:21:24.209Z,5.63
2019-05-26T17:22:24.133Z,5.63
2019-05-26T17:24:16.221Z,5.63
2019-05-26T17:25:16.169Z,5.63
2019-05-26T17:27:08.259Z,5.63
2019-05-26T17:28:08.205Z,5.63
2019-05-26T17:30:00.272Z,5.63
2019-05-26T17:31:00.467Z,5.63
2019-05-26T17:32:52.331Z,5.63
2019-05-26T17:33:52.501Z,5.63
2019-05-26T17:35:44.358Z,5.63
2019-05-26T17:36:44.305Z,0.00
2019-05-26T17:38:36.496Z,0.00
2019-05-26T17:39:36.440Z,0.00
2019-05-26T17:41:28.509Z,0.00
2019-05-26T17:42:28.478Z,0.00
2019-05-26T17:44:20.671Z,0.00
2019-05-26T17:45:20.613Z,0.00
2019-05-26T17:47:12.701Z,0.00
2019-05-26T17:48:12.648Z,5.63
2019-05-26T17:50:04.720Z,0.00
2019-05-26T17:51:04.912Z,0.00
2019-05-26T17:52:56.772Z,0.00
2019-05-26T17:53:56.947Z,0.00
2019-05-26T17:55:48.784Z,0.00
2019-05-26T17:56:48.756Z,0.00
2019-05-26T17:58:40.939Z,0.00
2019-05-26T17:59:40.887Z,0.00
2019-05-26T18:01:32.975Z,0.00
2019-05-26T18:02:32.923Z,0.00
2019-05-26T18:04:25.112Z,0.00
2019-05-26T18:05:25.288Z,0.00
2019-05-26T18:07:17.129Z,0.00
2019-05-26T18:08:17.326Z,0.00
2019-05-26T18:10:09.180Z,0.00
2019-05-26T18:11:09.129Z,0.00
2019-05-26T18:13:01.214Z,0.00
2019-05-26T18:14:01.163Z,0.00
2019-05-26T18:15:53.261Z,0.00
2019-05-26T18:16:53.427Z,5.63
2019-05-26T18:18:45.289Z,5.63
2019-05-26T18:19:45.461Z,5.63
2019-05-26T18:21:37.425Z,5.63
2019-05-26T18:22:37.599Z,5.63
2019-05-26T18:24:29.455Z,0.00
2019-05-26T18:25:29.632Z,0.00
2019-05-26T18:27:21.592Z,0.00
2019-05-26T18:28:21.783Z,0.00
2019-05-26T18:30:13.625Z,0.00
2019-05-26T18:31:13.572Z,0.00
2019-05-26T18:33:05.662Z,0.00
2019-05-26T18:34:05.609Z,0.00
2019-05-26T18:35:57.681Z,0.00
2019-05-26T18:36:57.873Z,0.00
2019-05-26T18:38:49.730Z,0.00
2019-05-26T18:39:49.907Z,0.00
2019-05-26T18:41:41.766Z,0.00
2019-05-26T18:42:41.712Z,0.00
2019-05-26T18:44:33.783Z,5.63
2019-05-26T18:45:33.975Z,5.63
2019-05-26T18:47:25.828Z,5.63
2019-05-26T18:48:26.011Z,5.63
2019-05-26T18:50:17.849Z,5.63
2019-05-26T18:51:17.813Z,5.63
2019-05-26T18:53:09.903Z,5.63
2019-05-26T18:54:09.855Z,0.00
2019-05-26T18:56:01.922Z,5.63
2019-05-26T18:57:02.018Z,5.63
2019-05-26T18:58:53.890Z,0.00
2019-05-26T18:59:54.043Z,0.00
2019-05-26T19:01:45.891Z,0.00
2019-05-26T19:02:45.848Z,0.00
2019-05-26T19:04:37.928Z,0.00
2019-05-26T19:05:38.601Z,0.00